Montclair, Virginia
Current Conditions -  °F | °C
As of 8:56 AM on Tuesday 27 Jan 2015 (Local Time) from KNYG Reporting Station
Overcast Overcast  
Wind Chill: 19°   Ceiling: 4500
Heat Index: 30°   Visibility: 10mi
Dew Point: 22°   Wind: 16mph
Humidity: 72%   Direction: 350°N
Pressure: 29.84"   Gusts: 24mph
Location:  38.61°N, 77.34°W
Report Text: KNYG 271356Z 35014G21KT 10SM SCT015 OVC045 M01/M06 A2984 RMK AO2 SLP106 T10111056 $
Loading
Personal Weather Stations






























Interactive Weather Map New forecast layout! Learn more

10-Day Weather Forecast

Advertisements
Track Severe Weather on mobile